Latest Weather Observations for Coonabarabran Airport

IDN60801

Issued at 3:33 pm EDT Sunday 21 December 2014 (issued every 30 minutes, with the page automatically refreshed every 10 minutes)

About weather observations | Map of weather stations | Latest weather observations for NSW | Other Formats
Station Details ID: 064017 Name: COONABARABRAN AIRPORT AWS Lat: -31.33 Lon: 149.27 Height: 645.0 m
Data from the previous 72 hours. | See also: Recent months for locations in New South Wales
Date/Time
EDT
Temp
°C
App
Temp
°C
Dew
Point
Rel
Hum
%
Delta-T
°C
Wind Press
QNH
hPa
Press
MSL
hPa
Rain
since 9 am
mm
Dir
 
Spd
km/h
Gust
km/h
Spd
kts
Gust
kts
21/03:30pm 29.0 27.4 10.2 31 10.9 ENE 9 17 5 9 1015.9 1012.4 0.0
21/03:00pm 28.6 25.7 9.8 31 10.8 NNW 15 26 8 14 1016.3 1012.8 0.0
21/02:30pm 28.6 25.7 9.8 31 10.8 NNW 15 24 8 13 1016.4 1013.0 0.0
21/02:00pm 30.3 29.2 11.8 32 11.1 NNW 9 20 5 11 1016.8 1013.4 0.0
21/01:30pm 28.8 25.9 10.9 33 10.5 N 17 32 9 17 1017.1 1013.7 0.0
21/01:00pm 27.8 25.0 11.4 36 9.6 NNW 17 30 9 16 1017.5 1014.0 0.0
21/12:30pm 27.7 25.1 12.1 38 9.3 N 17 30 9 16 1017.8 1014.4 0.0
21/12:00pm 26.9 24.4 14.0 45 7.9 N 20 30 11 16 1018.2 1014.8 0.0
21/11:30am 26.1 23.5 13.9 47 7.4 N 20 35 11 19 1018.3 1014.9 0.0
21/11:00am 25.7 23.1 14.8 51 6.7 N 22 35 12 19 1018.3 1014.9 0.0
21/10:30am 24.4 21.2 14.2 53 6.2 N 24 35 13 19 1018.4 1015.0 0.0
21/10:00am 23.6 20.4 14.3 56 5.6 N 24 35 13 19 1018.5 1015.1 0.0
21/09:30am 23.4 20.0 14.7 58 5.3 N 26 35 14 19 1018.7 1015.3 0.0
21/08:30am 21.3 18.9 13.7 62 4.5 NNE 19 24 10 13 1018.8 1015.4 0.0
21/08:00am 20.4 17.8 13.8 66 3.9 NE 20 24 11 13 1018.6 1015.2 0.0
21/07:30am 19.1 16.8 13.1 68 3.5 NE 17 22 9 12 1018.3 1014.9 0.0
21/07:00am 18.2 16.3 13.1 72 3.0 NE 15 17 8 9 1018.0 1014.6 0.0
21/06:30am 17.0 15.6 13.3 79 2.1 NE 13 15 7 8 1017.7 1014.2 0.0
21/06:00am 16.1 14.9 12.8 81 1.9 NE 11 13 6 7 1017.3 1013.9 0.0
21/05:30am 16.4 14.4 12.8 79 2.1 ENE 15 20 8 11 1016.9 1013.5 0.0
21/05:00am 16.4 14.5 12.9 80 2.0 ENE 15 19 8 10 1016.5 1013.1 0.0
21/04:30am 15.8 14.0 12.2 79 2.0 E 13 15 7 8 1016.2 1012.7 0.0
21/04:00am 16.9 14.1 12.6 76 2.5 E 19 24 10 13 1016.0 1012.5 0.0
21/03:30am 16.9 14.1 12.6 76 2.5 E 19 22 10 12 1016.0 1012.5 0.0
21/03:00am 17.5 14.7 12.6 73 2.8 E 19 22 10 12 1016.1 1012.6 0.0
21/02:30am 18.3 15.4 13.0 71 3.1 E 20 26 11 14 1016.2 1012.7 0.0
21/02:00am 18.4 15.4 11.9 66 3.7 ENE 19 24 10 13 1016.4 1013.0 0.0
21/01:30am 19.0 15.8 11.3 61 4.3 ENE 19 24 10 13 1016.6 1013.2 0.0
21/01:00am 19.3 15.9 10.6 57 4.8 ENE 19 26 10 14 1016.7 1013.3 0.0
21/12:30am 20.0 17.8 10.7 55 5.2 ESE 13 17 7 9 1016.7 1013.3 0.0
21/12:00am 19.6 17.3 10.6 56 5.0 E 13 15 7 8 1016.8 1013.4 0.0
 
Date/Time
EDT
Temp
°C
App
Temp
°C
Dew
Point
Rel
Hum
%
Delta-T
°C
Wind Press
QNH
hPa
Press
MSL
hPa
Rain
since 9 am
mm
Dir
 
Spd
km/h
Gust
km/h
Spd
kts
Gust
kts
20/11:30pm 19.7 17.4 10.4 55 5.2 E 13 15 7 8 1016.9 1013.5 0.0
20/11:00pm 20.7 18.4 10.5 52 5.7 E 13 17 7 9 1016.9 1013.5 0.0
20/10:30pm 21.6 19.3 10.4 49 6.3 SE 13 17 7 9 1016.8 1013.4 0.0
20/10:00pm 22.5 19.8 10.3 46 6.9 ESE 15 19 8 10 1016.5 1013.1 0.0
20/09:30pm 22.7 19.8 9.8 44 7.2 SE 15 19 8 10 1016.3 1012.8 0.0
20/09:00pm 23.8 20.3 8.6 38 8.4 SE 17 22 9 12 1016.0 1012.5 0.0
20/08:30pm 24.2 20.4 4.0 27 10.3 S 13 15 7 8 1015.3 1011.9 0.0
20/08:00pm 25.7 21.1 3.6 24 11.3 S 17 20 9 11 1014.9 1011.4 0.0
20/07:30pm 27.3 22.7 3.7 22 12.2 S 17 22 9 12 1014.5 1011.0 0.0
20/07:00pm 28.2 23.4 4.5 22 12.5 SSE 19 26 10 14 1014.3 1010.8 0.0
20/06:30pm 28.6 23.8 4.8 22 12.6 S 19 30 10 16 1014.0 1010.6 0.0
20/05:30pm 29.4 24.9 4.1 20 13.3 SSE 17 26 9 14 1013.5 1010.1 0.0
20/05:00pm 29.3 25.4 3.3 19 13.5 S 13 22 7 12 1013.6 1010.2 0.0
20/04:30pm 28.9 24.6 3.0 19 13.3 SE 15 24 8 13 1013.7 1010.3 0.0
20/04:00pm 30.0 25.2 4.6 20 13.5 S 19 32 10 17 1014.2 1010.7 0.0
20/03:30pm 29.4 26.1 4.8 21 13.1 SSW 11 19 6 10 1014.6 1011.1 0.0
20/03:00pm 28.4 25.8 4.0 21 12.7 SSE 7 15 4 8 1015.0 1011.6 0.0
20/02:30pm 28.7 25.1 4.9 22 12.6 SSW 13 19 7 10 1015.3 1011.9 0.0
20/02:00pm 27.5 24.5 3.9 22 12.2 S 9 20 5 11 1015.6 1012.2 0.0
20/01:30pm 27.5 24.5 3.9 22 12.2 NW 9 17 5 9 1016.1 1012.6 0.0
20/01:00pm 26.5 23.5 4.3 24 11.5 NNW 9 15 5 8 1016.3 1012.8 0.0
20/12:30pm 26.8 23.4 4.0 23 11.8 S 11 20 6 11 1016.8 1013.4 0.0
20/12:00pm 26.3 21.6 0.9 19 12.4 SSE 15 24 8 13 1017.3 1013.9 0.0
20/11:30am 25.5 23.5 7.1 31 10.0 WSW 7 13 4 7 1017.7 1014.2 0.0
20/11:00am 24.5 22.7 9.3 38 8.5 ENE 9 19 5 10 1017.8 1014.4 0.0
20/10:30am 22.6 20.9 9.7 44 7.2 NE 9 19 5 10 1017.7 1014.2 0.0
20/10:00am 21.7 19.6 11.1 51 6.0 E 13 19 7 10 1017.6 1014.1 0.0
20/09:30am 20.6 18.5 11.2 55 5.3 E 13 19 7 10 1017.7 1014.2 0.0
20/09:00am 18.8 16.6 10.9 60 4.4 E 13 19 7 10 1017.7 1014.2 -
20/08:30am 17.7 15.9 11.0 65 3.7 ESE 11 17 6 9 1017.5 1014.0 -
20/08:00am 16.1 14.7 10.8 71 2.9 S 9 15 5 8 1017.3 1013.9 -
20/07:30am 14.7 13.3 10.9 78 2.1 SSW 9 11 5 6 1017.1 1013.7 -
20/07:00am 13.1 11.3 11.0 87 1.1 SSW 11 13 6 7 1016.7 1013.3 -
20/06:30am 12.2 9.7 10.9 92 0.7 SSW 15 17 8 9 1016.4 1013.0 -
20/06:00am 11.2 8.9 10.3 94 0.5 S 13 15 7 8 1016.2 1012.7 -
20/05:30am 11.5 9.6 10.4 93 0.6 SSW 11 13 6 7 1016.1 1012.6 -
20/05:00am 11.6 9.3 10.3 92 0.7 SSW 13 13 7 7 1016.0 1012.5 -
20/04:00am 11.9 9.1 10.0 88 1.0 S 15 17 8 9 1015.9 1012.4 0.0
20/03:30am 12.4 9.1 9.6 83 1.5 S 17 20 9 11 1015.9 1012.4 0.0
20/03:00am 12.9 9.5 9.2 78 1.9 SSW 17 19 9 10 1015.9 1012.4 0.0
20/02:30am 13.5 10.3 10.1 80 1.8 SSE 17 20 9 11 1016.2 1012.7 0.0
20/02:00am 13.4 10.6 7.0 65 3.2 SSE 11 15 6 8 1016.3 1012.8 0.0
20/01:30am 14.6 10.8 5.9 56 4.3 S 15 19 8 10 1016.3 1012.8 0.0
20/01:00am 15.3 10.7 -1.3 32 7.1 SSE 13 20 7 11 1016.6 1013.2 0.0
20/12:30am 17.0 11.6 -1.6 28 8.0 SSW 17 20 9 11 1016.6 1013.2 0.0
20/12:00am 17.5 12.1 -1.2 28 8.2 S 17 20 9 11 1016.9 1013.5 0.0
 
Date/Time
EDT
Temp
°C
App
Temp
°C
Dew
Point
Rel
Hum
%
Delta-T
°C
Wind Press
QNH
hPa
Press
MSL
hPa
Rain
since 9 am
mm
Dir
 
Spd
km/h
Gust
km/h
Spd
kts
Gust
kts
19/11:30pm 18.1 13.1 -1.2 27 8.5 S 15 22 8 12 1017.0 1013.6 0.0
19/11:00pm 18.8 13.4 -1.6 25 8.9 S 17 22 9 12 1017.0 1013.6 0.0
19/10:30pm 19.0 13.9 -2.0 24 9.2 SSW 15 20 8 11 1016.7 1013.3 0.0
19/10:00pm 19.7 14.2 -2.0 23 9.5 SSW 17 22 9 12 1016.3 1012.8 0.0
19/09:30pm 20.2 14.7 -2.2 22 9.8 SSW 17 22 9 12 1016.1 1012.6 0.0
19/09:00pm 21.0 15.4 -2.8 20 10.4 SW 17 22 9 12 1015.9 1012.4 0.0
19/08:30pm 21.6 15.6 -3.0 19 10.8 SW 19 26 10 14 1015.7 1012.3 0.0
19/08:00pm 22.6 16.1 -2.2 19 11.1 SW 22 30 12 16 1015.3 1011.9 0.0
19/07:30pm 23.8 17.7 -2.7 17 11.9 SW 20 30 11 16 1015.0 1011.6 0.0
19/07:00pm 24.5 17.2 -2.9 16 12.3 SW 26 35 14 19 1014.8 1011.3 0.0
19/06:30pm 25.5 19.2 -1.3 17 12.5 SSW 22 32 12 17 1014.3 1010.8 0.0
19/06:00pm 25.4 18.9 -2.2 16 12.6 SW 22 35 12 19 1013.9 1010.5 0.0
19/05:30pm 26.0 19.3 -0.9 17 12.7 WSW 24 37 13 20 1013.7 1010.3 0.0
19/05:00pm 26.2 19.8 0.8 19 12.4 SW 24 37 13 20 1013.7 1010.3 0.0
19/04:30pm 25.6 18.7 0.3 19 12.1 SW 26 43 14 23 1013.7 1010.3 0.0
19/04:00pm 26.3 19.6 1.6 20 12.2 WSW 26 37 14 20 1013.9 1010.5 0.0
19/03:30pm 26.4 19.7 1.7 20 12.2 WSW 26 37 14 20 1014.2 1010.7 0.0
19/03:00pm 26.5 19.7 1.0 19 12.5 WSW 26 41 14 22 1014.2 1010.7 0.0
19/02:30pm 26.9 20.9 1.3 19 12.6 WSW 22 33 12 18 1014.3 1010.8 0.0
19/02:00pm 26.8 20.8 3.3 22 12.0 SSW 24 35 13 19 1014.3 1010.8 0.0
19/01:30pm 26.2 20.8 1.5 20 12.2 SW 19 30 10 16 1014.6 1011.1 0.0
19/01:00pm 25.6 19.2 1.0 20 12.0 SW 24 33 13 18 1014.9 1011.4 0.0
19/12:30pm 25.1 18.8 1.3 21 11.6 SSW 24 35 13 19 1015.1 1011.7 0.0
19/12:00pm 25.4 20.7 3.4 24 11.2 S 17 35 9 19 1015.2 1011.8 0.0
19/11:30am 24.4 20.2 1.9 23 11.0 WSW 13 26 7 14 1015.1 1011.7 0.0
19/11:00am 25.0 19.9 3.0 24 11.0 SSW 19 32 10 17 1015.2 1011.8 0.0
19/10:30am 24.2 18.1 2.9 25 10.6 SW 24 33 13 18 1015.2 1011.8 0.0
19/10:00am 23.1 17.8 2.0 25 10.3 S 19 32 10 17 1015.1 1011.7 0.0
19/09:30am 23.3 18.1 3.3 27 10.0 S 20 33 11 18 1014.9 1011.4 0.0
19/09:00am 21.6 17.0 3.8 31 8.9 S 17 24 9 13 1014.7 1011.2 0.0
19/08:30am 21.0 15.7 3.2 31 8.7 S 20 26 11 14 1014.7 1011.2 0.0
19/08:00am 20.4 15.7 3.2 32 8.4 SSW 17 24 9 13 1014.4 1010.9 0.0
19/07:30am 19.5 14.7 2.8 33 8.0 SSW 17 20 9 11 1013.6 1010.2 0.0
19/07:00am 18.5 14.4 2.4 34 7.6 SSW 13 19 7 10 1013.6 1010.2 0.0
19/06:30am 17.9 13.0 2.2 35 7.4 SSW 17 20 9 11 1013.4 1009.9 0.0
19/06:00am 17.6 12.6 1.6 34 7.4 SSW 17 24 9 13 1013.0 1009.5 0.0
19/05:30am 17.9 12.9 1.4 33 7.6 SSW 17 22 9 12 1012.6 1009.1 0.0
19/05:00am 18.5 12.9 1.1 31 8.0 SW 20 26 11 14 1012.3 1008.9 0.0
19/04:30am 18.9 13.1 0.0 28 8.6 SW 20 28 11 15 1012.2 1008.8 0.0
19/04:00am 20.0 14.3 -0.6 25 9.3 SW 19 24 10 13 1011.9 1008.4 0.0
19/03:30am 20.3 15.3 -0.9 24 9.6 WSW 15 20 8 11 1011.8 1008.3 0.0
19/03:00am 19.6 14.6 -0.9 25 9.2 WNW 15 20 8 11 1011.7 1008.2 0.0
19/02:30am 20.9 15.2 -1.0 23 9.9 NW 19 24 10 13 1011.7 1008.2 0.0
19/02:00am 21.5 15.2 -1.1 22 10.3 NW 22 30 12 16 1011.6 1008.1 0.0
19/01:30am 21.5 15.6 -0.5 23 10.1 NW 20 28 11 15 1011.4 1007.9 0.0
19/01:00am 21.3 15.4 -0.6 23 10.0 NW 20 26 11 14 1011.7 1008.2 0.0
19/12:30am 21.7 15.4 -0.9 22 10.3 NW 22 28 12 15 1012.0 1008.5 0.0
19/12:00am 22.1 15.5 -0.6 22 10.5 NW 24 28 13 15 1011.9 1008.4 0.0
 
Date/Time
EDT
Temp
°C
App
Temp
°C
Dew
Point
Rel
Hum
%
Delta-T
°C
Wind Press
QNH
hPa
Press
MSL
hPa
Rain
since 9 am
mm
Dir
 
Spd
km/h
Gust
km/h
Spd
kts
Gust
kts
18/11:30pm 22.2 15.5 -1.1 21 10.6 NW 24 30 13 16 1012.0 1008.5 0.0
18/11:00pm 21.9 15.6 -0.8 22 10.4 WNW 22 28 12 15 1012.0 1008.5 0.0
18/10:30pm 21.8 15.9 -0.8 22 10.3 NW 20 26 11 14 1011.9 1008.4 0.0
18/10:00pm 22.5 16.2 -0.9 21 10.7 NW 22 30 12 16 1011.8 1008.3 0.0
18/09:30pm 21.8 16.6 0.4 24 10.0 NW 17 22 9 12 1011.6 1008.1 0.0
18/09:00pm 21.8 16.3 0.4 24 10.0 NW 19 20 10 11 1011.5 1008.0 0.0
18/08:30pm 22.0 16.5 0.5 24 10.1 WNW 19 22 10 12 1011.2 1007.7 0.0
18/08:00pm 23.0 17.9 0.8 23 10.6 WNW 17 20 9 11 1011.1 1007.6 0.0
18/07:30pm 23.2 18.3 2.1 25 10.3 W 17 24 9 13 1010.9 1007.4 0.0
18/07:00pm 23.6 18.4 2.4 25 10.5 W 19 24 10 13 1010.4 1006.9 0.0
18/06:30pm 24.1 18.0 2.9 25 10.6 W 24 33 13 18 1010.0 1006.5 0.0
18/06:00pm 24.8 17.8 1.7 22 11.3 W 28 39 15 21 1009.5 1006.0 0.0
18/05:30pm 25.6 18.1 1.0 20 12.0 W 30 46 16 25 1009.4 1005.9 0.0
18/05:00pm 26.1 18.2 -1.7 16 12.9 WSW 30 39 16 21 1009.4 1005.9 0.0
18/04:47pm 26.5 18.8 -3.1 14 13.5 WSW 28 46 15 25 1009.5 1006.0 0.0
18/04:30pm 27.0 19.4 -1.8 15 13.5 W 28 39 15 21 1009.8 1006.3 0.0
18/04:00pm 26.1 18.9 0.7 19 12.4 W 28 37 15 20 1009.9 1006.4 0.0

Other Formats:

Comma delimited format used in spreadsheet applications
http://www.bom.gov.au/fwo/IDN60801/IDN60801.95728.axf

JavaScript Object Notation format (JSON) in row-major order
http://www.bom.gov.au/fwo/IDN60801/IDN60801.95728.json